createdAt,value
2018-08-19T00:01:10.096Z,8.00
2018-08-19T00:06:14.864Z,9.88
2018-08-19T00:11:21.307Z,10.45
2018-08-19T00:16:26.126Z,7.15
2018-08-19T00:21:31.068Z,8.63
2018-08-19T00:26:35.816Z,7.62
2018-08-19T00:31:40.641Z,8.45
2018-08-19T00:36:45.604Z,7.40
2018-08-19T00:41:57.119Z,7.33
2018-08-19T00:47:01.846Z,9.70
2018-08-19T00:52:07.907Z,9.03
2018-08-19T00:57:12.600Z,10.38
2018-08-19T01:02:17.434Z,9.25
2018-08-19T01:07:22.080Z,9.58
2018-08-19T01:12:27.054Z,9.20
2018-08-19T01:17:42.157Z,9.58
2018-08-19T01:22:47.113Z,9.68
2018-08-19T01:27:52.818Z,9.83
2018-08-19T01:32:57.506Z,8.60
2018-08-19T01:38:02.527Z,10.23
2018-08-19T01:43:07.341Z,9.75
2018-08-19T01:48:12.467Z,9.25
2018-08-19T01:53:17.200Z,9.25
2018-08-19T01:58:22.334Z,9.15
2018-08-19T02:03:27.436Z,10.43
2018-08-19T02:08:32.851Z,10.68
2018-08-19T02:13:37.598Z,9.45
2018-08-19T02:18:44.313Z,9.15
2018-08-19T02:23:49.208Z,10.05
2018-08-19T02:28:53.814Z,9.15
2018-08-19T02:33:58.656Z,11.50
2018-08-19T02:39:03.525Z,12.85
2018-08-19T02:44:08.245Z,10.65
2018-08-19T02:49:13.749Z,9.98
2018-08-19T02:54:18.558Z,9.38
2018-08-19T02:59:23.163Z,12.03
2018-08-19T03:04:28.137Z,11.40
2018-08-19T03:09:32.949Z,10.90
2018-08-19T03:14:37.581Z,11.05
2018-08-19T03:19:42.391Z,11.30
2018-08-19T03:24:47.274Z,11.25
2018-08-19T03:29:56.274Z,11.03
2018-08-19T03:35:06.985Z,11.48
2018-08-19T03:40:11.638Z,10.68
2018-08-19T03:45:20.953Z,10.55
2018-08-19T03:50:26.675Z,13.18
2018-08-19T03:55:32.237Z,10.88
2018-08-19T04:00:39.012Z,10.80
2018-08-19T04:05:47.451Z,12.63
2018-08-19T04:10:52.751Z,13.15
2018-08-19T04:15:58.739Z,13.58
2018-08-19T04:21:06.898Z,13.80
2018-08-19T04:26:11.525Z,10.43
2018-08-19T04:31:21.264Z,15.93
2018-08-19T04:36:26.025Z,12.35
2018-08-19T04:41:30.890Z,11.50
2018-08-19T04:46:35.935Z,14.07
2018-08-19T04:51:40.779Z,14.58
2018-08-19T04:56:45.602Z,11.63
2018-08-19T05:01:50.288Z,9.98
2018-08-19T05:06:55.667Z,10.58
2018-08-19T05:12:01.025Z,13.00
2018-08-19T05:17:05.961Z,11.33
2018-08-19T05:22:13.261Z,10.72
2018-08-19T05:27:17.879Z,13.45
2018-08-19T05:32:22.740Z,15.70
2018-08-19T05:37:27.683Z,10.98
2018-08-19T05:42:32.406Z,11.28
2018-08-19T05:47:37.247Z,12.80
2018-08-19T05:52:41.845Z,11.78
2018-08-19T05:57:46.835Z,9.53
2018-08-19T06:02:52.445Z,12.10
2018-08-19T06:08:02.345Z,12.07
2018-08-19T06:13:07.925Z,8.73
2018-08-19T06:18:12.870Z,10.68
2018-08-19T06:23:18.078Z,13.22
2018-08-19T06:28:22.775Z,11.48
2018-08-19T06:33:27.970Z,11.25
2018-08-19T06:38:32.695Z,10.05
2018-08-19T06:43:37.411Z,9.93
2018-08-19T06:48:42.157Z,10.85
2018-08-19T06:53:46.868Z,10.75
2018-08-19T06:58:51.519Z,10.78
2018-08-19T07:03:56.777Z,12.55
2018-08-19T07:09:01.850Z,11.25
2018-08-19T07:14:06.705Z,13.22
2018-08-19T07:19:11.405Z,10.23
2018-08-19T07:24:16.353Z,14.70
2018-08-19T07:29:20.866Z,12.18
2018-08-19T07:34:25.819Z,14.25
2018-08-19T07:39:31.015Z,12.70
2018-08-19T07:44:36.226Z,13.25
2018-08-19T07:49:41.459Z,15.38
2018-08-19T07:54:46.180Z,12.78
2018-08-19T07:59:51.516Z,13.68
2018-08-19T08:04:56.907Z,13.98
2018-08-19T08:10:01.838Z,12.95
2018-08-19T08:15:10.784Z,16.57
2018-08-19T08:20:15.689Z,13.50
2018-08-19T08:25:20.569Z,11.70
2018-08-19T08:30:25.281Z,12.65
2018-08-19T08:35:30.482Z,14.60
2018-08-19T08:40:36.127Z,12.15
2018-08-19T08:45:42.308Z,15.70
2018-08-19T08:50:47.030Z,14.43
2018-08-19T08:56:04.734Z,12.50
2018-08-19T09:01:10.033Z,9.83
2018-08-19T09:06:34.257Z,13.20
2018-08-19T09:11:39.101Z,13.72
2018-08-19T09:16:44.433Z,13.65
2018-08-19T09:21:49.203Z,14.45
2018-08-19T09:26:54.489Z,11.93
2018-08-19T09:32:00.081Z,14.73
2018-08-19T09:37:05.065Z,15.45
2018-08-19T09:42:14.528Z,12.05
2018-08-19T09:47:19.585Z,12.50
2018-08-19T09:52:24.540Z,11.10
2018-08-19T09:57:31.634Z,12.58
2018-08-19T10:02:40.651Z,14.63
2018-08-19T10:07:45.480Z,11.60
2018-08-19T10:12:50.213Z,11.00
2018-08-19T10:17:54.963Z,11.50
2018-08-19T10:23:01.915Z,12.35
2018-08-19T10:28:08.425Z,11.03
2018-08-19T10:33:13.661Z,11.90
2018-08-19T10:38:19.021Z,12.20
2018-08-19T10:43:24.065Z,10.88
2018-08-19T10:48:28.785Z,11.97
2018-08-19T10:53:33.592Z,14.03
2018-08-19T10:58:45.672Z,9.95
2018-08-19T11:03:50.472Z,12.53
2018-08-19T11:08:56.835Z,9.58
2018-08-19T11:14:06.242Z,10.38
2018-08-19T11:19:11.141Z,9.93
2018-08-19T11:24:26.927Z,10.38
2018-08-19T11:29:35.015Z,9.08
2018-08-19T11:34:39.853Z,9.98
2018-08-19T11:39:44.938Z,9.90
2018-08-19T11:44:49.755Z,6.85
2018-08-19T11:49:54.326Z,7.78
2018-08-19T11:54:58.792Z,6.60
2018-08-19T12:00:04.456Z,8.88
2018-08-19T12:05:09.284Z,8.03
2018-08-19T12:10:14.770Z,6.35
2018-08-19T12:15:20.032Z,7.30
2018-08-19T12:20:42.071Z,6.28
2018-08-19T12:25:46.901Z,6.47
2018-08-19T12:30:51.509Z,6.50
2018-08-19T12:35:58.136Z,7.10
2018-08-19T12:41:05.523Z,6.97
2018-08-19T12:46:10.461Z,5.95
2018-08-19T12:51:15.217Z,6.33
2018-08-19T12:56:19.986Z,6.72
2018-08-19T13:01:24.520Z,6.90
2018-08-19T13:06:30.338Z,6.25
2018-08-19T13:11:35.161Z,5.53
2018-08-19T13:16:39.953Z,6.22
2018-08-19T13:21:44.901Z,5.28
2018-08-19T13:26:49.860Z,5.33
2018-08-19T13:31:54.709Z,7.33
2018-08-19T13:36:59.482Z,7.53
2018-08-19T13:42:05.467Z,5.60
2018-08-19T13:47:10.268Z,5.42
2018-08-19T13:52:15.031Z,5.40
2018-08-19T13:57:19.672Z,5.55
2018-08-19T14:02:24.529Z,5.25
2018-08-19T14:07:29.371Z,6.85
2018-08-19T14:12:34.326Z,5.65
2018-08-19T14:17:39.067Z,4.83
2018-08-19T14:22:43.695Z,4.80
2018-08-19T14:27:48.701Z,4.97
2018-08-19T14:32:53.488Z,6.60
2018-08-19T14:37:58.460Z,7.67
2018-08-19T14:43:03.820Z,5.75
2018-08-19T14:48:09.151Z,6.83
2018-08-19T14:53:14.711Z,11.50
2018-08-19T14:58:19.973Z,13.43
2018-08-19T15:03:25.193Z,7.20
2018-08-19T15:08:31.324Z,7.15
2018-08-19T15:13:36.144Z,5.58
2018-08-19T15:18:42.397Z,4.00
2018-08-19T15:23:47.970Z,4.95
2018-08-19T15:28:53.417Z,4.95
2018-08-19T15:33:58.557Z,4.87
2018-08-19T15:39:04.141Z,5.12
2018-08-19T15:44:08.979Z,3.65
2018-08-19T15:49:14.263Z,4.83
2018-08-19T15:54:19.316Z,5.10
2018-08-19T15:59:23.992Z,3.17
2018-08-19T16:04:30.211Z,4.78
2018-08-19T16:09:35.410Z,3.62
2018-08-19T16:14:40.551Z,3.72
2018-08-19T16:19:45.323Z,3.77
2018-08-19T16:24:50.389Z,4.00
2018-08-19T16:29:54.933Z,3.60
2018-08-19T16:34:59.931Z,3.55
2018-08-19T16:40:05.636Z,3.30
2018-08-19T16:45:12.146Z,4.33
2018-08-19T16:50:17.014Z,4.42
2018-08-19T16:55:21.841Z,5.17
2018-08-19T17:00:26.807Z,3.50
2018-08-19T17:05:33.423Z,3.98
2018-08-19T17:10:39.312Z,3.95
2018-08-19T17:15:44.046Z,4.70
2018-08-19T17:20:48.984Z,4.97
2018-08-19T17:25:54.173Z,4.25
2018-08-19T17:30:59.741Z,4.75
2018-08-19T17:36:04.884Z,4.65
2018-08-19T17:41:09.486Z,4.40
2018-08-19T17:46:15.709Z,3.92
2018-08-19T17:51:31.969Z,4.15
2018-08-19T17:56:36.704Z,4.47
2018-08-19T18:01:43.182Z,4.85
2018-08-19T18:06:48.029Z,5.87
2018-08-19T18:11:59.743Z,4.55
2018-08-19T18:17:04.519Z,5.95
2018-08-19T18:22:09.178Z,5.25
2018-08-19T18:27:13.804Z,5.03
2018-08-19T18:32:18.825Z,6.10
2018-08-19T18:37:23.534Z,6.58
2018-08-19T18:42:37.946Z,4.65
2018-08-19T18:47:48.807Z,4.62
2018-08-19T18:52:54.065Z,5.28
2018-08-19T18:57:59.456Z,4.45
2018-08-19T19:03:04.380Z,4.35
2018-08-19T19:08:13.189Z,5.12
2018-08-19T19:13:20.322Z,5.12
2018-08-19T19:18:25.011Z,6.40
2018-08-19T19:23:38.482Z,4.40
2018-08-19T19:28:43.806Z,7.12
2018-08-19T19:33:48.572Z,4.97
2018-08-19T19:38:57.203Z,4.83
2018-08-19T19:44:20.029Z,6.00
2018-08-19T19:49:25.873Z,5.70
2018-08-19T19:54:31.785Z,5.72
2018-08-19T19:59:36.403Z,4.87
2018-08-19T20:04:41.028Z,5.33
2018-08-19T20:09:45.846Z,5.20
2018-08-19T20:14:51.041Z,3.98
2018-08-19T20:19:55.872Z,3.50
2018-08-19T20:25:00.720Z,4.35
2018-08-19T20:30:05.781Z,5.30
2018-08-19T20:35:10.968Z,4.45
2018-08-19T20:40:16.174Z,6.33
2018-08-19T20:45:21.600Z,4.70
2018-08-19T20:50:26.444Z,6.20
2018-08-19T20:55:31.141Z,4.22
2018-08-19T21:00:36.188Z,4.08
2018-08-19T21:05:41.050Z,4.70
2018-08-19T21:10:46.836Z,5.83
2018-08-19T21:15:53.897Z,4.83
2018-08-19T21:20:59.994Z,5.10
2018-08-19T21:26:05.453Z,5.47
2018-08-19T21:31:10.467Z,5.90
2018-08-19T21:36:16.202Z,7.33
2018-08-19T21:41:21.084Z,6.35
2018-08-19T21:46:25.919Z,6.10
2018-08-19T21:51:30.667Z,6.55
2018-08-19T21:56:35.922Z,7.92
2018-08-19T22:01:47.430Z,6.70
2018-08-19T22:06:52.202Z,7.62
2018-08-19T22:11:58.318Z,5.95
2018-08-19T22:17:10.992Z,5.80
2018-08-19T22:22:15.983Z,6.20
2018-08-19T22:27:20.719Z,6.33
2018-08-19T22:32:25.564Z,5.33
2018-08-19T22:37:31.473Z,7.72
2018-08-19T22:42:36.962Z,7.55
2018-08-19T22:47:41.716Z,5.47
2018-08-19T22:52:46.785Z,7.08
2018-08-19T22:57:51.664Z,6.50
2018-08-19T23:02:56.903Z,8.08
2018-08-19T23:08:01.760Z,5.58
2018-08-19T23:14:20.033Z,6.00
2018-08-19T23:19:24.839Z,6.20
2018-08-19T23:24:29.728Z,9.83
2018-08-19T23:29:34.540Z,6.47
2018-08-19T23:34:39.234Z,6.47
2018-08-19T23:39:44.056Z,7.65
2018-08-19T23:44:48.698Z,8.75
2018-08-19T23:49:53.348Z,5.87
2018-08-19T23:54:58.095Z,6.60
